createdAt,value
2016-08-14T00:00:09.083Z,747.03
2016-08-14T00:01:09.073Z,746.99
2016-08-14T00:02:09.070Z,746.99
2016-08-14T00:03:09.059Z,747.07
2016-08-14T00:04:09.043Z,747.02
2016-08-14T00:05:09.043Z,746.98
2016-08-14T00:06:09.028Z,747.04
2016-08-14T00:07:09.021Z,747.02
2016-08-14T00:08:09.019Z,747.07
2016-08-14T00:09:09.009Z,747.04
2016-08-14T00:10:08.997Z,747.04
2016-08-14T00:11:08.989Z,747.06
2016-08-14T00:12:08.981Z,747.06
2016-08-14T00:13:08.971Z,746.98
2016-08-14T00:14:08.971Z,747.02
2016-08-14T00:15:08.955Z,747.03
2016-08-14T00:16:08.954Z,746.99
2016-08-14T00:17:08.974Z,747
2016-08-14T00:18:08.937Z,747.02
2016-08-14T00:19:08.931Z,747
2016-08-14T00:20:08.915Z,746.98
2016-08-14T00:21:08.915Z,747
2016-08-14T00:22:08.907Z,746.98
2016-08-14T00:23:08.894Z,747.05
2016-08-14T00:24:08.884Z,747.04
2016-08-14T00:25:08.878Z,746.92
2016-08-14T00:26:08.874Z,746.94
2016-08-14T00:27:08.866Z,746.9
2016-08-14T00:28:08.858Z,746.99
2016-08-14T00:29:08.845Z,747.03
2016-08-14T00:30:08.842Z,747.03
2016-08-14T00:31:08.827Z,746.98
2016-08-14T00:32:08.820Z,746.91
2016-08-14T00:33:08.811Z,746.98
2016-08-14T00:34:08.809Z,746.94
2016-08-14T00:35:08.802Z,746.92
2016-08-14T00:36:08.793Z,746.96
2016-08-14T00:37:08.779Z,746.98
2016-08-14T00:38:08.777Z,747
2016-08-14T00:39:08.762Z,746.97
2016-08-14T00:40:08.761Z,746.97
2016-08-14T00:41:08.746Z,746.85
2016-08-14T00:42:08.738Z,746.97
2016-08-14T00:43:08.743Z,746.98
2016-08-14T00:44:08.729Z,746.94
2016-08-14T00:45:08.721Z,746.87
2016-08-14T00:46:08.713Z,746.91
2016-08-14T00:47:08.698Z,746.88
2016-08-14T00:48:08.690Z,746.95
2016-08-14T00:49:08.682Z,746.88
2016-08-14T00:50:08.675Z,746.91
2016-08-14T00:51:08.673Z,746.87
2016-08-14T00:52:08.655Z,746.93
2016-08-14T00:53:08.648Z,746.92
2016-08-14T00:54:08.642Z,746.92
2016-08-14T00:55:08.631Z,746.89
2016-08-14T00:56:08.630Z,746.92
2016-08-14T00:57:08.616Z,746.94
2016-08-14T00:58:08.614Z,746.87
2016-08-14T00:59:08.598Z,746.86
2016-08-14T01:00:08.593Z,746.79
2016-08-14T01:01:08.583Z,746.8
2016-08-14T01:02:08.576Z,746.88
2016-08-14T01:03:08.574Z,746.78
2016-08-14T01:04:08.566Z,746.81
2016-08-14T01:05:08.558Z,746.82
2016-08-14T01:06:08.543Z,746.77
2016-08-14T01:07:08.541Z,746.85
2016-08-14T01:08:08.526Z,746.86
2016-08-14T01:09:08.525Z,746.79
2016-08-14T01:10:08.516Z,746.78
2016-08-14T01:11:08.501Z,746.8
2016-08-14T01:12:08.493Z,746.89
2016-08-14T01:13:08.493Z,746.75
2016-08-14T01:14:08.476Z,746.78
2016-08-14T01:15:08.475Z,746.86
2016-08-14T01:16:08.518Z,746.8
2016-08-14T01:17:08.452Z,746.84
2016-08-14T01:18:08.450Z,746.86
2016-08-14T01:19:08.443Z,746.83
2016-08-14T01:20:08.434Z,746.82
2016-08-14T01:21:08.422Z,746.82
2016-08-14T01:22:08.410Z,746.77
2016-08-14T01:23:08.403Z,746.76
2016-08-14T01:24:08.402Z,746.79
2016-08-14T01:25:08.394Z,746.71
2016-08-14T01:26:08.378Z,746.75
2016-08-14T01:27:08.371Z,746.72
2016-08-14T01:28:08.361Z,746.74
2016-08-14T01:29:08.360Z,746.73
2016-08-14T01:30:08.345Z,746.78
2016-08-14T01:31:08.337Z,746.78
2016-08-14T01:32:08.329Z,746.76
2016-08-14T01:33:08.320Z,746.76
2016-08-14T01:34:08.312Z,746.69
2016-08-14T01:35:08.311Z,746.75
2016-08-14T01:36:08.298Z,746.71
2016-08-14T01:37:08.294Z,746.73
2016-08-14T01:38:08.286Z,746.71
2016-08-14T01:39:08.278Z,746.67
2016-08-14T01:40:08.263Z,746.74
2016-08-14T01:41:08.261Z,746.59
2016-08-14T01:42:08.252Z,746.66
2016-08-14T01:43:08.238Z,746.71
2016-08-14T01:44:08.235Z,746.73
2016-08-14T01:45:08.222Z,746.68
2016-08-14T01:46:08.220Z,746.64
2016-08-14T01:47:08.204Z,746.7
2016-08-14T01:48:08.203Z,746.67
2016-08-14T01:49:08.188Z,746.65
2016-08-14T01:50:08.180Z,746.71
2016-08-14T01:51:08.177Z,746.65
2016-08-14T01:52:08.176Z,746.64
2016-08-14T01:53:08.161Z,746.7
2016-08-14T01:54:08.147Z,746.68
2016-08-14T01:55:08.144Z,746.71
2016-08-14T01:56:08.136Z,746.73
2016-08-14T01:57:08.130Z,746.62
2016-08-14T01:58:08.112Z,746.65
2016-08-14T01:59:08.111Z,746.66
2016-08-14T02:00:08.096Z,746.61
2016-08-14T02:01:08.087Z,746.66
2016-08-14T02:02:08.085Z,746.56
2016-08-14T02:03:08.079Z,746.63
2016-08-14T02:04:08.070Z,746.61
2016-08-14T02:05:08.060Z,746.57
2016-08-14T02:06:08.045Z,746.58
2016-08-14T02:07:08.037Z,746.57
2016-08-14T02:08:08.036Z,746.66
2016-08-14T02:09:08.020Z,746.58
2016-08-14T02:10:08.011Z,746.66
2016-08-14T02:11:08.010Z,746.58
2016-08-14T02:12:08.000Z,746.6
2016-08-14T02:13:07.992Z,746.61
2016-08-14T02:14:07.984Z,746.6
2016-08-14T02:15:07.968Z,746.57
2016-08-14T02:16:07.960Z,746.53
2016-08-14T02:17:07.952Z,746.58
2016-08-14T02:18:07.944Z,746.57
2016-08-14T02:19:07.942Z,746.55
2016-08-14T02:20:07.934Z,746.5
2016-08-14T02:21:07.927Z,746.56
2016-08-14T02:22:07.912Z,746.54
2016-08-14T02:23:07.901Z,746.59
2016-08-14T02:24:07.901Z,746.55
2016-08-14T02:25:07.886Z,746.47
2016-08-14T02:26:07.878Z,746.53
2016-08-14T02:27:07.875Z,746.47
2016-08-14T02:28:07.859Z,746.5
2016-08-14T02:29:07.858Z,746.43
2016-08-14T02:30:07.850Z,746.52
2016-08-14T02:31:07.834Z,746.47
2016-08-14T02:32:07.833Z,746.47
2016-08-14T02:33:07.825Z,746.48
2016-08-14T02:34:07.808Z,746.43
2016-08-14T02:35:07.808Z,746.47
2016-08-14T02:36:07.800Z,746.5
2016-08-14T02:37:07.792Z,746.46
2016-08-14T02:38:07.775Z,746.5
2016-08-14T02:39:07.774Z,746.46
2016-08-14T02:40:07.759Z,746.5
2016-08-14T02:41:07.750Z,746.46
2016-08-14T02:42:07.748Z,746.44
2016-08-14T02:43:07.745Z,746.41
2016-08-14T02:44:07.725Z,746.45
2016-08-14T02:45:07.722Z,746.45
2016-08-14T02:46:07.715Z,746.43
2016-08-14T02:47:07.699Z,746.39
2016-08-14T02:48:07.692Z,746.4
2016-08-14T02:49:07.703Z,746.34
2016-08-14T02:50:07.681Z,746.37
2016-08-14T02:51:07.673Z,746.38
2016-08-14T02:52:07.664Z,746.34
2016-08-14T02:53:07.649Z,746.45
2016-08-14T02:54:07.647Z,746.41
2016-08-14T02:55:07.633Z,746.38
2016-08-14T02:56:07.623Z,746.41
2016-08-14T02:57:07.623Z,746.35
2016-08-14T02:58:07.608Z,746.34
2016-08-14T02:59:07.606Z,746.39
2016-08-14T03:00:07.597Z,746.34
2016-08-14T03:01:07.589Z,746.36
2016-08-14T03:02:07.574Z,746.3
2016-08-14T03:03:07.572Z,746.32
2016-08-14T03:04:07.563Z,746.38
2016-08-14T03:05:07.555Z,746.37
2016-08-14T03:06:07.547Z,746.39
2016-08-14T03:07:07.539Z,746.38
2016-08-14T03:08:07.530Z,746.39
2016-08-14T03:09:07.523Z,746.44
2016-08-14T03:10:07.514Z,746.34
2016-08-14T03:11:07.499Z,746.33
2016-08-14T03:12:07.497Z,746.34
2016-08-14T03:13:07.488Z,746.34
2016-08-14T03:14:07.474Z,746.38
2016-08-14T03:15:07.464Z,746.33
2016-08-14T03:16:07.457Z,746.34
2016-08-14T03:17:07.460Z,746.3
2016-08-14T03:18:07.447Z,746.31
2016-08-14T03:19:07.431Z,746.37
2016-08-14T03:20:07.425Z,746.41
2016-08-14T03:21:07.416Z,746.29
2016-08-14T03:22:07.413Z,746.27
2016-08-14T03:23:07.400Z,746.3
2016-08-14T03:24:07.397Z,746.29
2016-08-14T03:25:07.383Z,746.26
2016-08-14T03:26:07.374Z,746.31
2016-08-14T03:27:07.372Z,746.38
2016-08-14T03:28:07.363Z,746.3
2016-08-14T03:29:07.354Z,746.23
2016-08-14T03:30:07.339Z,746.31
2016-08-14T03:31:07.331Z,746.28
2016-08-14T03:32:07.329Z,746.34
2016-08-14T03:33:07.320Z,746.25
2016-08-14T03:34:07.312Z,746.33
2016-08-14T03:35:07.296Z,746.2
2016-08-14T03:36:07.296Z,746.32
2016-08-14T03:37:07.287Z,746.37
2016-08-14T03:38:07.279Z,746.31
2016-08-14T03:39:07.271Z,746.34
2016-08-14T03:40:07.256Z,746.3
2016-08-14T03:41:07.247Z,746.28
2016-08-14T03:42:07.237Z,746.24
2016-08-14T03:43:07.237Z,746.33
2016-08-14T03:44:07.228Z,746.2
2016-08-14T03:45:07.212Z,746.3
2016-08-14T03:46:07.211Z,746.24
2016-08-14T03:47:07.202Z,746.33
2016-08-14T03:48:07.193Z,746.22
2016-08-14T03:49:07.185Z,746.29
2016-08-14T03:50:07.171Z,746.29
2016-08-14T03:51:07.161Z,746.27
2016-08-14T03:52:07.154Z,746.26
2016-08-14T03:53:07.145Z,746.29
2016-08-14T03:54:07.136Z,746.3
2016-08-14T03:55:07.135Z,746.23
2016-08-14T03:56:07.119Z,746.24
2016-08-14T03:57:07.119Z,746.2
2016-08-14T03:58:07.109Z,746.3
2016-08-14T03:59:07.094Z,746.2
2016-08-14T04:00:07.085Z,746.24
2016-08-14T04:01:07.077Z,746.23
2016-08-14T04:02:07.075Z,746.29
2016-08-14T04:03:07.067Z,746.27
2016-08-14T04:04:07.057Z,746.26
2016-08-14T04:05:07.049Z,746.26
2016-08-14T04:06:07.036Z,746.23
2016-08-14T04:07:07.026Z,746.12
2016-08-14T04:08:07.024Z,746.22
2016-08-14T04:09:07.014Z,746.18
2016-08-14T04:10:07.006Z,746.24
2016-08-14T04:11:06.991Z,746.24
2016-08-14T04:12:06.982Z,746.27
2016-08-14T04:13:06.973Z,746.26
2016-08-14T04:14:06.972Z,746.24
2016-08-14T04:15:06.962Z,746.25
2016-08-14T04:16:06.953Z,746.19
2016-08-14T04:17:06.937Z,746.26
2016-08-14T04:18:06.937Z,746.22
2016-08-14T04:19:06.927Z,746.26
2016-08-14T04:20:06.912Z,746.21
2016-08-14T04:21:06.910Z,746.25
2016-08-14T04:22:06.895Z,746.25
2016-08-14T04:23:06.892Z,746.24
2016-08-14T04:24:06.877Z,746.24
2016-08-14T04:25:06.867Z,746.25
2016-08-14T04:26:06.867Z,746.24
2016-08-14T04:27:06.849Z,746.28
2016-08-14T04:28:06.842Z,746.28
2016-08-14T04:29:06.840Z,746.28
2016-08-14T04:30:06.825Z,746.26
2016-08-14T04:31:06.826Z,746.33
2016-08-14T04:32:06.806Z,746.31
2016-08-14T04:33:06.798Z,746.28
2016-08-14T04:34:06.796Z,746.3
2016-08-14T04:35:06.787Z,746.28
2016-08-14T04:36:06.778Z,746.34
2016-08-14T04:37:06.763Z,746.3
2016-08-14T04:38:06.754Z,746.33
2016-08-14T04:39:06.744Z,746.31
2016-08-14T04:40:06.742Z,746.36
2016-08-14T04:41:06.734Z,746.38
2016-08-14T04:42:06.725Z,746.33
2016-08-14T04:43:06.716Z,746.29
2016-08-14T04:44:06.702Z,746.33
2016-08-14T04:45:06.692Z,746.33
2016-08-14T04:46:06.683Z,746.31
2016-08-14T04:47:06.674Z,746.36
2016-08-14T04:48:06.673Z,746.4
2016-08-14T04:49:06.656Z,746.4
2016-08-14T04:50:06.649Z,746.46
2016-08-14T04:51:06.646Z,746.37
2016-08-14T04:52:06.637Z,746.4
2016-08-14T04:53:06.622Z,746.43
2016-08-14T04:54:06.613Z,746.33
2016-08-14T04:55:06.604Z,746.34
2016-08-14T04:56:06.602Z,746.46
2016-08-14T04:57:06.585Z,746.41
2016-08-14T04:58:06.584Z,746.39
2016-08-14T04:59:06.576Z,746.36
2016-08-14T05:00:06.567Z,746.32
2016-08-14T05:01:06.554Z,746.46
2016-08-14T05:02:06.544Z,746.44
2016-08-14T05:03:06.535Z,746.46
2016-08-14T05:04:06.533Z,746.36
2016-08-14T05:05:06.524Z,746.41
2016-08-14T05:06:06.517Z,746.46
2016-08-14T05:07:06.508Z,746.47
2016-08-14T05:08:06.492Z,746.46
2016-08-14T05:09:06.490Z,746.49
2016-08-14T05:10:06.482Z,746.42
2016-08-14T05:11:06.472Z,746.43
2016-08-14T05:12:06.458Z,746.41
2016-08-14T05:13:06.456Z,746.51
2016-08-14T05:14:06.441Z,746.47
2016-08-14T05:15:06.438Z,746.46
2016-08-14T05:16:06.431Z,746.52
2016-08-14T05:17:06.418Z,746.47
2016-08-14T05:18:06.406Z,746.5
2016-08-14T05:19:06.404Z,746.42
2016-08-14T05:20:06.397Z,746.44
2016-08-14T05:21:06.387Z,746.45
2016-08-14T05:22:06.379Z,746.41
2016-08-14T05:23:06.365Z,746.48
2016-08-14T05:24:06.354Z,746.5
2016-08-14T05:25:06.353Z,746.48
2016-08-14T05:26:06.344Z,746.49
2016-08-14T05:27:06.335Z,746.44
2016-08-14T05:28:06.320Z,746.47
2016-08-14T05:29:06.312Z,746.41
2016-08-14T05:30:06.317Z,746.51
2016-08-14T05:31:06.303Z,746.48
2016-08-14T05:32:06.288Z,746.46
2016-08-14T05:33:06.284Z,746.47
2016-08-14T05:34:06.277Z,746.5
2016-08-14T05:35:06.268Z,746.49
2016-08-14T05:36:06.260Z,746.47
2016-08-14T05:37:06.250Z,746.39
2016-08-14T05:38:06.243Z,746.46
2016-08-14T05:39:06.228Z,746.45
2016-08-14T05:40:06.226Z,746.51
2016-08-14T05:41:06.221Z,746.44
2016-08-14T05:42:06.205Z,746.49
2016-08-14T05:43:06.200Z,746.46
2016-08-14T05:44:06.183Z,746.45
2016-08-14T05:45:06.182Z,746.57
2016-08-14T05:46:06.167Z,746.52
2016-08-14T05:47:06.167Z,746.55
2016-08-14T05:48:06.158Z,746.59
2016-08-14T05:49:06.149Z,746.6
2016-08-14T05:50:06.135Z,746.57
2016-08-14T05:51:06.126Z,746.53
2016-08-14T05:52:06.123Z,746.55
2016-08-14T05:53:06.116Z,746.49
2016-08-14T05:54:06.100Z,746.54
2016-08-14T05:55:06.091Z,746.56
2016-08-14T05:56:06.090Z,746.6
2016-08-14T05:57:06.076Z,746.53
2016-08-14T05:58:06.066Z,746.52
2016-08-14T05:59:06.065Z,746.56
2016-08-14T06:00:06.056Z,746.51
2016-08-14T06:01:06.043Z,746.54
2016-08-14T06:02:06.039Z,746.56
2016-08-14T06:03:06.024Z,746.49
2016-08-14T06:04:06.015Z,746.6
2016-08-14T06:05:06.008Z,746.5
2016-08-14T06:06:06.009Z,746.52
2016-08-14T06:07:05.991Z,746.49
2016-08-14T06:08:05.983Z,746.54
2016-08-14T06:09:05.981Z,746.57
2016-08-14T06:10:05.972Z,746.54
2016-08-14T06:11:05.964Z,746.52
2016-08-14T06:12:05.957Z,746.52
2016-08-14T06:13:05.948Z,746.52
2016-08-14T06:14:05.939Z,746.49
2016-08-14T06:15:05.925Z,746.54
2016-08-14T06:16:05.917Z,746.5
2016-08-14T06:17:05.958Z,746.46
2016-08-14T06:18:05.900Z,746.58
2016-08-14T06:19:05.900Z,746.47
2016-08-14T06:20:05.892Z,746.51
2016-08-14T06:21:05.882Z,746.51
2016-08-14T06:22:05.875Z,746.52
2016-08-14T06:23:05.861Z,746.49
2016-08-14T06:24:05.853Z,746.56
2016-08-14T06:25:05.846Z,746.61
2016-08-14T06:26:05.845Z,746.53
2016-08-14T06:27:05.836Z,746.58
2016-08-14T06:28:05.828Z,746.55
2016-08-14T06:29:05.821Z,746.6
2016-08-14T06:30:05.813Z,746.59
2016-08-14T06:31:05.806Z,746.65
2016-08-14T06:32:05.798Z,746.6
2016-08-14T06:33:05.791Z,746.61
2016-08-14T06:34:05.776Z,746.59
2016-08-14T06:35:05.773Z,746.6
2016-08-14T06:36:05.767Z,746.58
2016-08-14T06:37:05.752Z,746.63
2016-08-14T06:38:05.752Z,746.59
2016-08-14T06:39:05.739Z,746.63
2016-08-14T06:40:05.731Z,746.58
2016-08-14T06:41:05.729Z,746.53
2016-08-14T06:42:05.723Z,746.57
2016-08-14T06:43:05.708Z,746.58
2016-08-14T06:44:05.701Z,746.63
2016-08-14T06:45:05.694Z,746.6
2016-08-14T06:46:05.686Z,746.6
2016-08-14T06:47:05.678Z,746.59
2016-08-14T06:48:05.679Z,746.61
2016-08-14T06:49:05.665Z,746.64
2016-08-14T06:50:05.664Z,746.65
2016-08-14T06:51:05.650Z,746.66
2016-08-14T06:52:05.643Z,746.68
2016-08-14T06:53:05.636Z,746.59
2016-08-14T06:54:05.635Z,746.65
2016-08-14T06:55:05.623Z,746.61
2016-08-14T06:56:05.621Z,746.63
2016-08-14T06:57:05.607Z,746.6
2016-08-14T06:58:05.606Z,746.6
2016-08-14T06:59:05.599Z,746.6
2016-08-14T07:00:05.585Z,746.63
2016-08-14T07:01:05.578Z,746.61
2016-08-14T07:02:05.570Z,746.67
2016-08-14T07:03:05.570Z,746.62
2016-08-14T07:04:05.557Z,746.71
2016-08-14T07:05:05.556Z,746.7
2016-08-14T07:06:05.550Z,746.72
2016-08-14T07:07:05.536Z,746.75
2016-08-14T07:08:05.535Z,746.77
2016-08-14T07:09:05.522Z,746.76
2016-08-14T07:10:05.521Z,746.79
2016-08-14T07:11:05.519Z,746.87
2016-08-14T07:12:05.501Z,746.92
2016-08-14T07:13:05.502Z,746.82
2016-08-14T07:14:05.495Z,746.75
2016-08-14T07:15:05.489Z,746.75
2016-08-14T07:16:05.482Z,746.78
2016-08-14T07:17:05.469Z,746.74
2016-08-14T07:18:05.464Z,746.85
2016-08-14T07:19:05.466Z,746.88
2016-08-14T07:20:05.456Z,746.89
2016-08-14T07:21:05.444Z,746.83
2016-08-14T07:22:05.437Z,746.82
2016-08-14T07:23:05.438Z,746.82
2016-08-14T07:24:05.432Z,746.87
2016-08-14T07:25:05.417Z,746.85
2016-08-14T07:26:05.418Z,746.85
2016-08-14T07:27:05.415Z,746.81
2016-08-14T07:28:05.406Z,746.85
2016-08-14T07:29:05.400Z,746.85
2016-08-14T07:30:05.391Z,746.8
2016-08-14T07:31:05.378Z,746.91
2016-08-14T07:32:05.379Z,746.89
2016-08-14T07:33:05.373Z,746.88
2016-08-14T07:34:05.359Z,746.93
2016-08-14T07:35:05.361Z,746.88
2016-08-14T07:36:05.361Z,746.88
2016-08-14T07:37:05.346Z,746.82
2016-08-14T07:38:05.335Z,746.76
2016-08-14T07:39:05.327Z,746.8
2016-08-14T07:40:05.322Z,746.89
2016-08-14T07:41:05.323Z,746.91
2016-08-14T07:42:05.308Z,746.89
2016-08-14T07:43:05.311Z,746.93
2016-08-14T07:44:05.305Z,746.96
2016-08-14T07:45:05.298Z,746.99
2016-08-14T07:46:05.292Z,746.97
2016-08-14T07:47:05.279Z,746.94
2016-08-14T07:48:05.280Z,746.96
2016-08-14T07:49:05.274Z,747.01
2016-08-14T07:50:05.262Z,747.03
2016-08-14T07:51:05.263Z,747.02
2016-08-14T07:52:05.258Z,747.03
2016-08-14T07:53:05.246Z,747.05
2016-08-14T07:54:05.239Z,746.98
2016-08-14T07:55:05.242Z,747.03
2016-08-14T07:56:05.229Z,747.03
2016-08-14T07:57:05.230Z,747.05
2016-08-14T07:58:05.226Z,747.05
2016-08-14T07:59:05.219Z,747.01
2016-08-14T08:00:05.207Z,747.04
2016-08-14T08:01:05.211Z,747.09
2016-08-14T08:02:05.199Z,747.1
2016-08-14T08:03:05.200Z,747.04
2016-08-14T08:04:05.195Z,747.05
2016-08-14T08:05:05.184Z,746.98
2016-08-14T08:06:05.190Z,747.04
2016-08-14T08:07:05.181Z,746.98
2016-08-14T08:08:05.169Z,747.05
2016-08-14T08:09:05.168Z,747.07
2016-08-14T08:10:05.168Z,747.08
2016-08-14T08:11:05.163Z,747.02
2016-08-14T08:12:05.440Z,747.08
2016-08-14T08:13:05.155Z,747.09
2016-08-14T08:14:05.144Z,747.17
2016-08-14T08:15:05.140Z,747.13
2016-08-14T08:16:05.134Z,747.15
2016-08-14T08:17:05.131Z,747.08
2016-08-14T08:18:05.126Z,747.08
2016-08-14T08:19:05.121Z,747.12
2016-08-14T08:20:05.125Z,747.09
2016-08-14T08:21:05.122Z,747.06
2016-08-14T08:22:05.116Z,747.08
2016-08-14T08:23:05.107Z,747.08
2016-08-14T08:24:05.110Z,747.03
2016-08-14T08:25:05.105Z,747.13
2016-08-14T08:26:05.102Z,747.06
2016-08-14T08:27:05.097Z,747.03
2016-08-14T08:28:05.094Z,747.09
2016-08-14T08:29:05.082Z,747.02
2016-08-14T08:30:05.087Z,747.07
2016-08-14T08:31:05.080Z,747.05
2016-08-14T08:32:05.069Z,747.07
2016-08-14T08:33:05.077Z,747
2016-08-14T08:34:05.061Z,747.09
2016-08-14T08:35:05.064Z,747.06
2016-08-14T08:36:05.052Z,747.12
2016-08-14T08:37:05.054Z,747.07
2016-08-14T08:38:05.044Z,747.07
2016-08-14T08:39:05.046Z,747.09
2016-08-14T08:40:05.035Z,747.06
2016-08-14T08:41:05.038Z,747.09
2016-08-14T08:42:05.034Z,747.13
2016-08-14T08:43:05.029Z,747.06
2016-08-14T08:44:05.018Z,747.12
2016-08-14T08:45:05.021Z,747.16
2016-08-14T08:46:05.017Z,747.12
2016-08-14T08:47:05.004Z,747.13
2016-08-14T08:48:05.000Z,747.09
2016-08-14T08:49:05.004Z,747.14
2016-08-14T08:50:04.994Z,747.14
2016-08-14T08:51:04.990Z,747.12
2016-08-14T08:52:04.986Z,747.13
2016-08-14T08:53:04.990Z,747.18
2016-08-14T08:54:04.979Z,747.15
2016-08-14T08:55:04.975Z,747.21
2016-08-14T08:56:04.973Z,747.15
2016-08-14T08:57:04.967Z,747.13
2016-08-14T08:58:04.964Z,747.17
2016-08-14T08:59:04.959Z,747.17
2016-08-14T09:00:04.962Z,747.18
2016-08-14T09:01:04.951Z,747.15
2016-08-14T09:02:04.946Z,747.22
2016-08-14T09:03:04.942Z,747.2
2016-08-14T09:04:04.946Z,747.12
2016-08-14T09:05:04.943Z,747.17
2016-08-14T09:06:04.936Z,747.16
2016-08-14T09:07:04.934Z,747.14
2016-08-14T09:08:04.929Z,747.14
2016-08-14T09:09:04.924Z,747.21
2016-08-14T09:10:04.921Z,747.17
2016-08-14T09:11:04.917Z,747.14
2016-08-14T09:12:04.911Z,747.16
2016-08-14T09:13:04.900Z,747.17
2016-08-14T09:14:04.898Z,747.13
2016-08-14T09:15:04.893Z,747.16
2016-08-14T09:16:04.894Z,747.15
2016-08-14T09:17:04.890Z,747.14
2016-08-14T09:18:04.887Z,747.17
2016-08-14T09:19:04.876Z,747.18
2016-08-14T09:20:04.877Z,747.18
2016-08-14T09:21:04.866Z,747.19
2016-08-14T09:22:04.860Z,747.14
2016-08-14T09:23:04.863Z,747.18
2016-08-14T09:24:04.857Z,747.2
2016-08-14T09:25:04.855Z,747.18
2016-08-14T09:26:04.846Z,747.25
2016-08-14T09:27:04.838Z,747.2
2016-08-14T09:28:04.834Z,747.25
2016-08-14T09:29:04.830Z,747.2
2016-08-14T09:30:04.832Z,747.25
2016-08-14T09:31:04.820Z,747.25
2016-08-14T09:32:04.817Z,747.17
2016-08-14T09:33:04.813Z,747.15
2016-08-14T09:34:04.808Z,747.21
2016-08-14T09:35:04.809Z,747.2
2016-08-14T09:36:04.807Z,747.17
2016-08-14T09:37:04.802Z,747.18
2016-08-14T09:38:04.798Z,747.18
2016-08-14T09:39:04.794Z,747.24
2016-08-14T09:40:04.782Z,747.22
2016-08-14T09:41:04.785Z,747.2
2016-08-14T09:42:04.773Z,747.21
2016-08-14T09:43:04.776Z,747.23
2016-08-14T09:44:04.766Z,747.21
2016-08-14T09:45:04.760Z,747.2
2016-08-14T09:46:04.756Z,747.23
2016-08-14T09:47:04.752Z,747.27
2016-08-14T09:48:04.755Z,747.27
2016-08-14T09:49:04.743Z,747.28
2016-08-14T09:50:04.739Z,747.26
2016-08-14T09:51:04.742Z,747.22
2016-08-14T09:52:04.732Z,747.22
2016-08-14T09:53:04.726Z,747.25
2016-08-14T09:54:04.730Z,747.22
2016-08-14T09:55:04.719Z,747.24
2016-08-14T09:56:04.714Z,747.27
2016-08-14T09:57:04.711Z,747.26
2016-08-14T09:58:04.713Z,747.25
2016-08-14T09:59:04.710Z,747.25
2016-08-14T10:00:04.705Z,747.18
2016-08-14T10:01:04.701Z,747.2
2016-08-14T10:02:04.690Z,747.2
2016-08-14T10:03:04.693Z,747.26
2016-08-14T10:04:04.682Z,747.22
2016-08-14T10:05:04.685Z,747.21
2016-08-14T10:06:04.681Z,747.22
2016-08-14T10:07:04.676Z,747.19
2016-08-14T10:08:04.666Z,747.16
2016-08-14T10:09:04.661Z,747.17
2016-08-14T10:10:04.657Z,747.17
2016-08-14T10:11:04.660Z,747.3
2016-08-14T10:12:04.654Z,747.23
2016-08-14T10:13:04.645Z,747.21
2016-08-14T10:14:04.651Z,747.22
2016-08-14T10:15:04.638Z,747.2
2016-08-14T10:16:04.633Z,747.13
2016-08-14T10:17:04.636Z,747.19
2016-08-14T10:18:04.830Z,747.18
2016-08-14T10:19:04.622Z,747.21
2016-08-14T10:20:04.662Z,747.22
2016-08-14T10:21:04.621Z,747.23
2016-08-14T10:22:04.616Z,747.21
2016-08-14T10:23:04.611Z,747.21
2016-08-14T10:24:04.602Z,747.23
2016-08-14T10:25:04.598Z,747.17
2016-08-14T10:26:04.593Z,747.24
2016-08-14T10:27:04.591Z,747.24
2016-08-14T10:28:04.587Z,747.19
2016-08-14T10:29:04.587Z,747.21
2016-08-14T10:30:04.579Z,747.28
2016-08-14T10:31:04.584Z,747.28
2016-08-14T10:32:04.569Z,747.27
2016-08-14T10:33:04.567Z,747.2
2016-08-14T10:34:04.568Z,747.25
2016-08-14T10:35:04.564Z,747.23
2016-08-14T10:36:04.554Z,747.21
2016-08-14T10:37:04.550Z,747.23
2016-08-14T10:38:04.548Z,747.25
2016-08-14T10:39:04.549Z,747.23
2016-08-14T10:40:04.544Z,747.2
2016-08-14T10:41:04.541Z,747.21
2016-08-14T10:42:04.537Z,747.23
2016-08-14T10:43:04.533Z,747.21
2016-08-14T10:44:04.522Z,747.17
2016-08-14T10:45:04.517Z,747.15
2016-08-14T10:46:04.519Z,747.21
2016-08-14T10:47:04.514Z,747.18
2016-08-14T10:48:04.505Z,747.22
2016-08-14T10:49:04.506Z,747.19
2016-08-14T10:50:04.495Z,747.17
2016-08-14T10:51:04.497Z,747.23
2016-08-14T10:52:04.489Z,747.21
2016-08-14T10:53:04.483Z,747.2
2016-08-14T10:54:04.480Z,747.21
2016-08-14T10:55:04.481Z,747.2
2016-08-14T10:56:04.470Z,747.24
2016-08-14T10:57:04.465Z,747.22
2016-08-14T10:58:04.468Z,747.2
2016-08-14T10:59:04.457Z,747.22
2016-08-14T11:00:04.461Z,747.18
2016-08-14T11:01:04.456Z,747.22
2016-08-14T11:02:04.449Z,747.2
2016-08-14T11:03:04.442Z,747.19
2016-08-14T11:04:04.443Z,747.16
2016-08-14T11:05:04.434Z,747.22
2016-08-14T11:06:04.430Z,747.13
2016-08-14T11:07:04.427Z,747.19
2016-08-14T11:08:04.423Z,747.24
2016-08-14T11:09:04.424Z,747.19
2016-08-14T11:10:04.413Z,747.16
2016-08-14T11:11:04.416Z,747.18
2016-08-14T11:12:04.406Z,747.16
2016-08-14T11:13:04.408Z,747.12
2016-08-14T11:14:04.405Z,747.13
2016-08-14T11:15:04.393Z,747.16
2016-08-14T11:16:04.396Z,747.18
2016-08-14T11:17:04.391Z,747.21
2016-08-14T11:18:04.530Z,747.2
2016-08-14T11:19:04.383Z,747.18
2016-08-14T11:20:04.380Z,747.17
2016-08-14T11:21:04.376Z,747.14
2016-08-14T11:22:04.365Z,747.14
2016-08-14T11:23:04.369Z,747.14
2016-08-14T11:24:04.359Z,747.18
2016-08-14T11:25:04.355Z,747.15
2016-08-14T11:26:04.352Z,747.17
2016-08-14T11:27:04.350Z,747.25
2016-08-14T11:28:04.346Z,747.22
2016-08-14T11:29:04.348Z,747.23
2016-08-14T11:30:04.340Z,747.23
2016-08-14T11:31:04.334Z,747.23
2016-08-14T11:32:04.338Z,747.22
2016-08-14T11:33:04.328Z,747.09
2016-08-14T11:34:04.326Z,747.09
2016-08-14T11:35:04.322Z,747.18
2016-08-14T11:36:04.326Z,747.25
2016-08-14T11:37:04.323Z,747.19
2016-08-14T11:38:04.319Z,747.17
2016-08-14T11:39:04.308Z,747.18
2016-08-14T11:40:04.308Z,747.24
2016-08-14T11:41:04.302Z,747.24
2016-08-14T11:42:04.305Z,747.25
2016-08-14T11:43:04.296Z,747.23
2016-08-14T11:44:04.300Z,747.26
2016-08-14T11:45:04.290Z,747.21
2016-08-14T11:46:04.287Z,747.23
2016-08-14T11:47:04.284Z,747.28
2016-08-14T11:48:04.287Z,747.24
2016-08-14T11:49:04.278Z,747.18
2016-08-14T11:50:04.281Z,747.2
2016-08-14T11:51:04.277Z,747.2
2016-08-14T11:52:04.268Z,747.2
2016-08-14T11:53:04.265Z,747.19
2016-08-14T11:54:04.263Z,747.14
2016-08-14T11:55:04.259Z,747.09
2016-08-14T11:56:04.264Z,747.16
2016-08-14T11:57:04.254Z,747.2
2016-08-14T11:58:04.252Z,747.17
2016-08-14T11:59:04.255Z,747.22
2016-08-14T12:00:04.252Z,747.19
2016-08-14T12:01:04.243Z,747.14
2016-08-14T12:02:04.240Z,747.16
2016-08-14T12:03:04.237Z,747.13
2016-08-14T12:04:04.234Z,747.17
2016-08-14T12:05:04.243Z,747.15
2016-08-14T12:06:04.230Z,747.21
2016-08-14T12:07:04.236Z,747.22
2016-08-14T12:08:04.226Z,747.14
2016-08-14T12:09:04.231Z,747.13
2016-08-14T12:10:04.221Z,747.15
2016-08-14T12:11:04.225Z,747.14
2016-08-14T12:12:04.216Z,747.17
2016-08-14T12:13:04.213Z,747.14
2016-08-14T12:14:04.219Z,747.06
2016-08-14T12:15:04.217Z,747.21
2016-08-14T12:16:04.214Z,747.21
2016-08-14T12:17:04.206Z,747.18
2016-08-14T12:18:04.211Z,747.13
2016-08-14T12:19:04.201Z,747.11
2016-08-14T12:20:04.206Z,747.06
2016-08-14T12:21:04.196Z,747.09
2016-08-14T12:22:04.193Z,747.11
2016-08-14T12:23:04.199Z,747.18
2016-08-14T12:24:04.197Z,747.18
2016-08-14T12:25:04.194Z,747.16
2016-08-14T12:26:04.191Z,747.15
2016-08-14T12:27:04.182Z,747.16
2016-08-14T12:28:04.180Z,747.13
2016-08-14T12:29:04.186Z,747.13
2016-08-14T12:30:04.176Z,747.15
2016-08-14T12:31:04.173Z,747.08